createdAt,value
2018-11-13T00:00:44.869Z,9.89
2018-11-13T00:03:17.518Z,9.88
2018-11-13T00:05:50.178Z,9.86
2018-11-13T00:08:22.907Z,9.86
2018-11-13T00:10:55.523Z,9.87
2018-11-13T00:13:28.231Z,9.88
2018-11-13T00:16:00.869Z,9.86
2018-11-13T00:18:33.589Z,9.86
2018-11-13T00:21:06.130Z,9.90
2018-11-13T00:23:38.729Z,9.92
2018-11-13T00:26:11.360Z,9.90
2018-11-13T00:28:43.996Z,9.87
2018-11-13T00:31:16.584Z,9.88
2018-11-13T00:33:49.181Z,9.88
2018-11-13T00:36:21.884Z,9.90
2018-11-13T00:38:54.584Z,9.92
2018-11-13T00:42:56.691Z,9.94
2018-11-13T00:45:29.387Z,9.93
2018-11-13T00:48:01.985Z,9.93
2018-11-13T00:50:34.759Z,9.92
2018-11-13T00:53:07.306Z,9.93
2018-11-13T00:55:39.947Z,9.91
2018-11-13T00:58:12.559Z,9.85
2018-11-13T01:00:45.739Z,9.81
2018-11-13T01:03:18.282Z,9.76
2018-11-13T01:05:50.931Z,9.76
2018-11-13T01:08:23.489Z,9.77
2018-11-13T01:10:56.044Z,9.76
2018-11-13T01:13:28.890Z,9.74
2018-11-13T01:16:01.228Z,9.74
2018-11-13T01:18:33.769Z,9.75
2018-11-13T01:21:06.445Z,9.71
2018-11-13T01:23:39.161Z,9.69
2018-11-13T01:26:11.723Z,9.70
2018-11-13T01:28:44.323Z,9.76
2018-11-13T01:31:16.899Z,9.76
2018-11-13T01:33:49.472Z,9.79
2018-11-13T01:36:22.082Z,9.80
2018-11-13T01:38:54.699Z,9.78
2018-11-13T01:41:27.301Z,9.79
2018-11-13T01:43:59.910Z,9.85
2018-11-13T01:46:32.655Z,9.80
2018-11-13T01:49:05.280Z,9.79
2018-11-13T01:51:37.885Z,9.78
2018-11-13T01:54:10.699Z,9.78
2018-11-13T01:56:43.240Z,9.81
2018-11-13T01:59:15.884Z,9.76
2018-11-13T02:01:48.473Z,9.78
2018-11-13T02:04:21.187Z,9.70
2018-11-13T02:06:53.782Z,9.68
2018-11-13T02:09:26.383Z,9.63
2018-11-13T02:11:58.961Z,9.61
2018-11-13T02:14:31.491Z,9.65
2018-11-13T02:17:04.083Z,9.62
2018-11-13T02:19:36.703Z,9.59
2018-11-13T02:22:09.279Z,9.53
2018-11-13T02:24:41.939Z,9.50
2018-11-13T02:27:14.559Z,9.46
2018-11-13T02:29:47.190Z,9.45
2018-11-13T02:32:19.795Z,9.46
2018-11-13T02:34:52.381Z,9.53
2018-11-13T02:37:24.982Z,9.59
2018-11-13T02:39:57.560Z,9.56
2018-11-13T02:42:30.090Z,9.57
2018-11-13T02:45:02.792Z,9.57
2018-11-13T02:47:35.452Z,9.52
2018-11-13T02:50:09.638Z,9.51
2018-11-13T02:52:42.251Z,9.54
2018-11-13T02:55:15.137Z,9.52
2018-11-13T02:57:47.736Z,9.52
2018-11-13T03:00:21.141Z,9.50
2018-11-13T03:02:53.690Z,9.46
2018-11-13T03:05:26.282Z,9.44
2018-11-13T03:07:58.851Z,9.46
2018-11-13T03:10:31.495Z,9.46
2018-11-13T03:13:04.652Z,9.44
2018-11-13T03:15:37.166Z,9.51
2018-11-13T03:18:09.735Z,9.46
2018-11-13T03:20:42.334Z,9.51
2018-11-13T03:23:14.906Z,9.53
2018-11-13T03:25:47.519Z,9.50
2018-11-13T03:28:20.055Z,9.50
2018-11-13T03:30:52.743Z,9.50
2018-11-13T03:33:25.322Z,9.55
2018-11-13T03:35:57.860Z,9.59
2018-11-13T03:38:30.431Z,9.57
2018-11-13T03:41:03.150Z,9.58
2018-11-13T03:43:35.720Z,9.54
2018-11-13T03:46:08.257Z,9.55
2018-11-13T03:48:41.423Z,9.55
2018-11-13T03:51:14.041Z,9.50
2018-11-13T03:53:46.645Z,9.51
2018-11-13T03:56:19.192Z,9.49
2018-11-13T03:58:51.812Z,9.44
2018-11-13T04:01:24.468Z,9.44
2018-11-13T04:03:57.066Z,9.44
2018-11-13T04:06:29.664Z,9.46
2018-11-13T04:09:02.339Z,9.49
2018-11-13T04:11:34.979Z,9.52
2018-11-13T04:14:08.149Z,9.51
2018-11-13T04:16:40.718Z,9.54
2018-11-13T04:19:14.428Z,9.52
2018-11-13T04:21:51.919Z,9.54
2018-11-13T04:24:24.621Z,9.47
2018-11-13T04:26:57.409Z,9.51
2018-11-13T04:29:30.516Z,9.51
2018-11-13T04:32:03.195Z,9.51
2018-11-13T04:34:35.781Z,9.51
2018-11-13T04:37:08.344Z,9.47
2018-11-13T04:39:40.952Z,9.46
2018-11-13T04:42:13.570Z,9.42
2018-11-13T04:44:46.111Z,9.44
2018-11-13T04:47:18.704Z,9.42
2018-11-13T04:49:51.279Z,9.44
2018-11-13T04:52:23.854Z,9.43
2018-11-13T04:54:56.457Z,9.38
2018-11-13T04:57:29.063Z,9.37
2018-11-13T05:00:01.732Z,9.38
2018-11-13T05:02:34.382Z,9.42
2018-11-13T05:05:07.813Z,9.53
2018-11-13T05:07:41.615Z,9.46
2018-11-13T05:10:14.390Z,9.51
2018-11-13T05:12:47.625Z,9.46
2018-11-13T05:15:20.290Z,9.39
2018-11-13T05:17:52.935Z,9.35
2018-11-13T05:20:25.530Z,9.34
2018-11-13T05:22:58.144Z,9.39
2018-11-13T05:25:30.778Z,9.33
2018-11-13T05:28:03.491Z,9.31
2018-11-13T05:30:36.117Z,9.27
2018-11-13T05:33:08.726Z,9.27
2018-11-13T05:35:41.387Z,9.31
2018-11-13T05:38:13.975Z,9.32
2018-11-13T05:40:46.635Z,9.32
2018-11-13T05:43:19.196Z,9.29
2018-11-13T05:45:51.899Z,9.29
2018-11-13T05:48:24.542Z,9.26
2018-11-13T05:50:57.149Z,9.32
2018-11-13T05:53:29.688Z,9.33
2018-11-13T05:56:02.923Z,9.42
2018-11-13T05:58:35.565Z,9.52
2018-11-13T06:01:08.558Z,9.35
2018-11-13T06:03:41.129Z,9.39
2018-11-13T06:06:13.717Z,9.39
2018-11-13T06:08:46.338Z,9.35
2018-11-13T06:11:18.965Z,9.35
2018-11-13T06:13:51.546Z,9.35
2018-11-13T06:16:24.141Z,9.33
2018-11-13T06:18:56.764Z,9.35
2018-11-13T06:21:29.394Z,9.31
2018-11-13T06:24:02.030Z,9.32
2018-11-13T06:26:34.644Z,9.32
2018-11-13T06:29:07.400Z,9.32
2018-11-13T06:31:39.952Z,9.34
2018-11-13T06:34:12.542Z,9.33
2018-11-13T06:36:46.082Z,9.37
2018-11-13T06:39:18.695Z,9.27
2018-11-13T06:41:51.307Z,9.27
2018-11-13T06:44:23.883Z,9.30
2018-11-13T06:46:56.486Z,9.29
2018-11-13T06:49:29.154Z,9.29
2018-11-13T06:52:01.793Z,9.23
2018-11-13T06:54:59.686Z,9.23
2018-11-13T06:57:32.832Z,9.19
2018-11-13T07:00:07.463Z,9.15
2018-11-13T07:02:40.070Z,9.16
2018-11-13T07:05:14.278Z,9.11
2018-11-13T07:07:47.233Z,9.16
2018-11-13T07:10:22.053Z,9.12
2018-11-13T07:12:55.362Z,9.11
2018-11-13T07:15:29.349Z,9.08
2018-11-13T07:18:03.994Z,9.17
2018-11-13T07:20:36.590Z,9.10
2018-11-13T07:23:09.205Z,9.06
2018-11-13T07:25:41.769Z,9.12
2018-11-13T07:28:14.380Z,9.15
2018-11-13T07:30:46.964Z,9.22
2018-11-13T07:33:19.526Z,9.29
2018-11-13T07:35:52.164Z,9.34
2018-11-13T07:38:24.790Z,9.35
2018-11-13T07:40:57.428Z,9.43
2018-11-13T07:43:30.061Z,9.40
2018-11-13T07:46:02.661Z,9.44
2018-11-13T07:48:35.291Z,9.42
2018-11-13T07:51:07.904Z,9.44
2018-11-13T07:53:40.547Z,9.42
2018-11-13T07:56:13.093Z,9.43
2018-11-13T07:58:45.693Z,9.45
2018-11-13T08:01:18.316Z,9.58
2018-11-13T08:03:50.932Z,9.55
2018-11-13T08:06:23.596Z,9.61
2018-11-13T08:08:56.190Z,9.65
2018-11-13T08:11:28.812Z,9.72
2018-11-13T08:14:01.472Z,9.77
2018-11-13T08:16:34.124Z,9.80
2018-11-13T08:19:06.803Z,9.81
2018-11-13T08:21:39.399Z,9.87
2018-11-13T08:24:12.036Z,9.85
2018-11-13T08:26:44.638Z,9.88
2018-11-13T08:29:17.264Z,9.88
2018-11-13T08:31:49.859Z,9.97
2018-11-13T08:34:22.475Z,10.05
2018-11-13T08:36:55.096Z,10.12
2018-11-13T08:39:27.736Z,10.14
2018-11-13T08:42:00.300Z,10.19
2018-11-13T08:44:33.856Z,10.20
2018-11-13T08:47:06.517Z,10.26
2018-11-13T08:49:39.163Z,10.33
2018-11-13T08:52:11.787Z,10.39
2018-11-13T08:54:44.428Z,10.48
2018-11-13T08:57:17.042Z,10.47
2018-11-13T08:59:49.672Z,10.43
2018-11-13T09:02:22.246Z,10.43
2018-11-13T09:04:55.005Z,10.49
2018-11-13T09:07:27.651Z,10.55
2018-11-13T09:10:00.409Z,10.62
2018-11-13T09:12:33.948Z,10.62
2018-11-13T09:15:09.554Z,10.59
2018-11-13T09:17:42.304Z,10.56
2018-11-13T09:20:16.215Z,10.60
2018-11-13T09:22:48.863Z,10.59
2018-11-13T09:25:21.498Z,10.64
2018-11-13T09:27:54.125Z,10.59
2018-11-13T09:30:26.938Z,10.68
2018-11-13T09:32:59.392Z,10.72
2018-11-13T09:35:32.025Z,10.69
2018-11-13T09:38:04.905Z,10.78
2018-11-13T09:40:37.564Z,10.79
2018-11-13T09:43:10.198Z,10.74
2018-11-13T09:45:42.909Z,10.83
2018-11-13T09:48:15.568Z,10.96
2018-11-13T09:50:48.352Z,10.88
2018-11-13T09:53:20.949Z,10.78
2018-11-13T09:55:53.532Z,10.75
2018-11-13T09:58:26.194Z,10.79
2018-11-13T10:00:59.009Z,10.72
2018-11-13T10:03:31.875Z,10.64
2018-11-13T10:06:04.121Z,10.59
2018-11-13T10:08:36.802Z,10.51
2018-11-13T10:11:09.439Z,10.51
2018-11-13T10:13:42.140Z,10.49
2018-11-13T10:16:14.843Z,10.48
2018-11-13T10:18:47.420Z,10.50
2018-11-13T10:21:20.054Z,10.49
2018-11-13T10:23:52.718Z,10.53
2018-11-13T10:26:25.459Z,10.59
2018-11-13T10:28:58.159Z,10.63
2018-11-13T10:31:30.844Z,10.78
2018-11-13T10:34:03.612Z,10.89
2018-11-13T10:36:36.358Z,11.05
2018-11-13T10:39:09.828Z,11.02
2018-11-13T10:41:42.589Z,11.01
2018-11-13T10:44:15.348Z,10.97
2018-11-13T10:46:48.043Z,10.84
2018-11-13T10:49:20.699Z,10.85
2018-11-13T10:51:53.282Z,10.85
2018-11-13T10:54:25.922Z,10.83
2018-11-13T10:56:58.533Z,10.94
2018-11-13T10:59:31.113Z,11.02
2018-11-13T11:02:09.426Z,10.96
2018-11-13T11:04:46.630Z,10.85
2018-11-13T11:07:19.227Z,10.90
2018-11-13T11:09:52.646Z,10.98
2018-11-13T11:12:25.269Z,11.01
2018-11-13T11:14:57.950Z,10.97
2018-11-13T11:17:30.611Z,10.96
2018-11-13T11:20:04.031Z,11.03
2018-11-13T11:22:36.659Z,11.04
2018-11-13T11:25:10.900Z,11.08
2018-11-13T11:27:43.728Z,11.11
2018-11-13T11:30:16.579Z,11.13
2018-11-13T11:32:49.285Z,11.11
2018-11-13T11:35:21.885Z,11.06
2018-11-13T11:37:54.470Z,11.16
2018-11-13T11:40:27.137Z,11.20
2018-11-13T11:42:59.716Z,11.40
2018-11-13T11:45:32.366Z,11.36
2018-11-13T11:48:05.163Z,11.44
2018-11-13T11:50:38.427Z,11.56
2018-11-13T11:53:10.991Z,11.81
2018-11-13T11:55:43.738Z,11.95
2018-11-13T11:58:16.368Z,11.72
2018-11-13T12:00:49.118Z,11.29
2018-11-13T12:03:21.644Z,11.33
2018-11-13T12:05:54.272Z,11.24
2018-11-13T12:08:26.883Z,11.24
2018-11-13T12:10:59.523Z,11.11
2018-11-13T12:13:32.163Z,10.93
2018-11-13T12:16:05.045Z,10.81
2018-11-13T12:18:37.657Z,10.27
2018-11-13T12:21:10.370Z,9.89
2018-11-13T12:23:43.111Z,9.59
2018-11-13T12:26:16.394Z,9.30
2018-11-13T12:28:49.029Z,9.23
2018-11-13T12:31:21.590Z,9.13
2018-11-13T12:33:54.192Z,9.12
2018-11-13T12:36:26.836Z,9.06
2018-11-13T12:38:59.454Z,9.01
2018-11-13T12:41:32.103Z,9.07
2018-11-13T12:44:04.907Z,9.13
2018-11-13T12:46:37.626Z,9.12
2018-11-13T12:49:10.217Z,9.29
2018-11-13T12:51:48.554Z,9.99
2018-11-13T12:54:21.186Z,10.06
2018-11-13T12:56:53.888Z,10.01
2018-11-13T12:59:26.619Z,11.02
2018-11-13T13:01:59.338Z,11.74
2018-11-13T13:04:31.973Z,11.80
2018-11-13T13:07:05.224Z,12.06
2018-11-13T13:09:38.326Z,11.65
2018-11-13T13:12:10.975Z,11.79
2018-11-13T13:14:43.619Z,11.62
2018-11-13T13:17:16.309Z,11.34
2018-11-13T13:19:48.890Z,11.49
2018-11-13T13:22:21.577Z,11.02
2018-11-13T13:24:54.286Z,10.58
2018-11-13T13:27:26.925Z,10.33
2018-11-13T13:29:59.501Z,10.14
2018-11-13T13:32:32.155Z,10.08
2018-11-13T13:35:20.737Z,9.98
2018-11-13T13:37:53.411Z,9.89
2018-11-13T13:40:26.080Z,9.81
2018-11-13T13:42:58.810Z,9.98
2018-11-13T13:45:31.948Z,9.99
2018-11-13T13:48:04.801Z,10.08
2018-11-13T13:50:38.029Z,10.02
2018-11-13T13:53:11.857Z,10.24
2018-11-13T13:55:44.979Z,10.17
2018-11-13T13:58:18.314Z,10.05
2018-11-13T14:00:51.312Z,9.95
2018-11-13T14:03:23.874Z,9.96
2018-11-13T14:05:56.633Z,9.94
2018-11-13T14:08:29.272Z,9.98
2018-11-13T14:11:01.906Z,9.96
2018-11-13T14:13:34.494Z,10.01
2018-11-13T14:16:07.408Z,10.02
2018-11-13T14:18:40.035Z,10.02
2018-11-13T14:21:12.676Z,10.08
2018-11-13T14:23:45.341Z,10.05
2018-11-13T14:26:18.010Z,10.06
2018-11-13T14:28:50.676Z,10.10
2018-11-13T14:31:23.954Z,10.05
2018-11-13T14:33:56.660Z,10.09
2018-11-13T14:36:29.292Z,10.10
2018-11-13T14:39:01.886Z,10.24
2018-11-13T14:41:34.577Z,10.16
2018-11-13T14:44:07.236Z,10.13
2018-11-13T14:46:39.911Z,10.07
2018-11-13T14:49:12.522Z,9.98
2018-11-13T14:51:45.250Z,9.90
2018-11-13T14:54:17.843Z,9.81
2018-11-13T14:56:50.436Z,9.85
2018-11-13T14:59:23.069Z,9.76
2018-11-13T15:01:55.662Z,9.71
2018-11-13T15:04:28.292Z,9.82
2018-11-13T15:07:01.023Z,9.72
2018-11-13T15:09:33.639Z,9.61
2018-11-13T15:12:06.248Z,9.56
2018-11-13T15:14:38.821Z,9.60
2018-11-13T15:17:11.525Z,9.65
2018-11-13T15:19:44.354Z,9.58
2018-11-13T15:22:17.164Z,9.64
2018-11-13T15:24:49.713Z,9.61
2018-11-13T15:27:23.037Z,9.63
2018-11-13T15:29:55.690Z,9.64
2018-11-13T15:32:28.381Z,9.57
2018-11-13T15:35:01.043Z,9.39
2018-11-13T15:37:33.818Z,9.35
2018-11-13T15:40:16.615Z,9.41
2018-11-13T15:42:49.217Z,9.50
2018-11-13T15:45:21.952Z,9.44
2018-11-13T15:47:55.707Z,9.41
2018-11-13T15:50:29.465Z,9.48
2018-11-13T15:53:02.079Z,9.45
2018-11-13T15:55:35.853Z,9.53
2018-11-13T15:58:08.838Z,9.65
2018-11-13T16:00:42.129Z,9.69
2018-11-13T16:03:20.682Z,9.71
2018-11-13T16:05:55.084Z,9.73
2018-11-13T16:08:27.838Z,9.70
2018-11-13T16:11:00.448Z,9.76
2018-11-13T16:13:33.093Z,9.65
2018-11-13T16:16:05.849Z,9.57
2018-11-13T16:18:38.547Z,9.56
2018-11-13T16:21:11.169Z,9.45
2018-11-13T16:23:43.807Z,9.42
2018-11-13T16:26:16.531Z,9.49
2018-11-13T16:28:49.115Z,9.42
2018-11-13T16:31:21.842Z,9.38
2018-11-13T16:33:55.553Z,9.32
2018-11-13T16:36:28.225Z,9.21
2018-11-13T16:39:00.856Z,9.21
2018-11-13T16:41:33.627Z,9.28
2018-11-13T16:44:06.253Z,9.28
2018-11-13T16:46:39.066Z,9.24
2018-11-13T16:49:11.814Z,9.22
2018-11-13T16:51:44.424Z,9.26
2018-11-13T16:54:17.051Z,9.26
2018-11-13T16:56:54.230Z,9.21
2018-11-13T16:59:26.870Z,9.33
2018-11-13T17:01:59.522Z,9.33
2018-11-13T17:04:32.322Z,9.32
2018-11-13T17:07:06.228Z,9.22
2018-11-13T17:09:38.771Z,9.21
2018-11-13T17:12:11.428Z,9.33
2018-11-13T17:14:44.085Z,9.18
2018-11-13T17:17:16.935Z,9.20
2018-11-13T17:19:49.641Z,9.18
2018-11-13T17:22:22.306Z,9.10
2018-11-13T17:24:55.000Z,9.08
2018-11-13T17:27:27.592Z,9.18
2018-11-13T17:30:00.245Z,9.28
2018-11-13T17:32:32.935Z,9.23
2018-11-13T17:35:06.841Z,9.22
2018-11-13T17:37:39.602Z,9.17
2018-11-13T17:40:14.487Z,9.05
2018-11-13T17:42:48.023Z,8.99
2018-11-13T17:45:23.113Z,9.04
2018-11-13T17:47:55.837Z,9.04
2018-11-13T17:50:30.028Z,9.24
2018-11-13T17:53:02.886Z,9.11
2018-11-13T17:55:35.649Z,9.16
2018-11-13T17:58:10.228Z,9.08
2018-11-13T18:00:45.426Z,9.07
2018-11-13T18:03:18.264Z,9.04
2018-11-13T18:05:50.969Z,8.97
2018-11-13T18:08:23.699Z,8.89
2018-11-13T18:10:56.557Z,8.96
2018-11-13T18:13:29.190Z,8.88
2018-11-13T18:16:01.918Z,8.83
2018-11-13T18:18:34.859Z,8.75
2018-11-13T18:21:07.572Z,8.78
2018-11-13T18:23:40.366Z,8.73
2018-11-13T18:26:12.932Z,8.91
2018-11-13T18:28:46.372Z,8.87
2018-11-13T18:31:19.026Z,8.81
2018-11-13T18:33:51.782Z,8.77
2018-11-13T18:36:24.440Z,8.64
2018-11-13T18:38:57.317Z,8.79
2018-11-13T18:41:29.889Z,8.65
2018-11-13T18:44:02.728Z,8.62
2018-11-13T18:46:35.508Z,8.58
2018-11-13T18:49:08.382Z,8.55
2018-11-13T18:51:41.385Z,8.56
2018-11-13T18:54:14.093Z,8.57
2018-11-13T18:56:47.539Z,8.53
2018-11-13T18:59:20.442Z,8.51
2018-11-13T19:01:53.301Z,8.44
2018-11-13T19:04:26.343Z,8.44
2018-11-13T19:06:59.045Z,8.45
2018-11-13T19:09:31.975Z,8.29
2018-11-13T19:12:05.164Z,8.52
2018-11-13T19:14:37.980Z,8.42
2018-11-13T19:17:10.861Z,8.52
2018-11-13T19:19:43.650Z,8.55
2018-11-13T19:22:16.365Z,8.42
2018-11-13T19:24:48.958Z,8.37
2018-11-13T19:27:21.555Z,8.22
2018-11-13T19:29:54.268Z,8.32
2018-11-13T19:32:26.997Z,8.25
2018-11-13T19:34:59.736Z,8.32
2018-11-13T19:37:32.368Z,8.29
2018-11-13T19:40:07.399Z,8.44
2018-11-13T19:42:40.287Z,8.36
2018-11-13T19:45:13.260Z,8.32
2018-11-13T19:47:45.994Z,8.33
2018-11-13T19:50:20.236Z,8.37
2018-11-13T19:52:52.901Z,8.41
2018-11-13T19:55:27.464Z,8.26
2018-11-13T19:58:00.146Z,8.15
2018-11-13T20:00:34.434Z,8.07
2018-11-13T20:03:08.395Z,8.05
2018-11-13T20:05:41.198Z,8.08
2018-11-13T20:08:13.880Z,8.10
2018-11-13T20:10:46.601Z,8.07
2018-11-13T20:13:19.242Z,8.23
2018-11-13T20:15:51.958Z,8.27
2018-11-13T20:18:24.604Z,8.27
2018-11-13T20:20:57.320Z,8.19
2018-11-13T20:23:30.067Z,8.22
2018-11-13T20:26:02.740Z,8.34
2018-11-13T20:28:35.955Z,8.31
2018-11-13T20:31:08.741Z,8.33
2018-11-13T20:33:41.412Z,8.23
2018-11-13T20:36:14.153Z,8.23
2018-11-13T20:38:46.888Z,8.27
2018-11-13T20:41:19.572Z,8.32
2018-11-13T20:43:52.331Z,8.36
2018-11-13T20:46:25.210Z,8.25
2018-11-13T20:48:57.903Z,8.22
2018-11-13T20:51:30.661Z,8.23
2018-11-13T20:54:03.385Z,8.22
2018-11-13T20:56:35.989Z,8.22
2018-11-13T20:59:08.709Z,8.12
2018-11-13T21:01:41.440Z,8.00
2018-11-13T21:04:14.224Z,8.01
2018-11-13T21:06:46.944Z,8.06
2018-11-13T21:09:19.619Z,8.07
2018-11-13T21:11:52.301Z,8.09
2018-11-13T21:14:24.955Z,8.03
2018-11-13T21:16:57.650Z,8.04
2018-11-13T21:19:30.322Z,7.97
2018-11-13T21:22:02.949Z,8.05
2018-11-13T21:24:35.717Z,7.95
2018-11-13T21:27:08.488Z,7.94
2018-11-13T21:29:41.214Z,7.98
2018-11-13T21:32:13.817Z,7.96
2018-11-13T21:34:47.207Z,7.92
